createdAt,value
2024-05-09T00:00:38.774Z,9.661513
2024-05-09T00:01:33.079Z,9.661523
2024-05-09T00:02:32.083Z,9.661587
2024-05-09T00:03:32.012Z,9.661608
2024-05-09T00:04:32.018Z,9.661604
2024-05-09T00:05:32.123Z,9.661551
2024-05-09T00:06:31.979Z,9.661508
2024-05-09T00:07:31.975Z,9.661515
2024-05-09T00:08:32.136Z,9.661476
2024-05-09T00:09:31.975Z,9.661482
2024-05-09T00:10:36.205Z,9.661547
2024-05-09T00:11:33.023Z,9.661496
2024-05-09T00:12:31.990Z,9.661511
2024-05-09T00:13:31.948Z,9.661510
2024-05-09T00:14:32.161Z,9.661510
2024-05-09T00:15:31.937Z,9.661544
2024-05-09T00:16:31.965Z,9.661511
2024-05-09T00:17:32.116Z,9.661524
2024-05-09T00:18:31.997Z,9.661491
2024-05-09T00:19:32.259Z,9.661500
2024-05-09T00:20:38.197Z,9.661539
2024-05-09T00:21:33.940Z,9.661540
2024-05-09T00:22:31.905Z,9.661518
2024-05-09T00:23:32.011Z,9.661609
2024-05-09T00:24:31.889Z,9.661467
2024-05-09T00:25:31.895Z,9.661484
2024-05-09T00:26:31.964Z,9.661571
2024-05-09T00:27:31.877Z,9.661602
2024-05-09T00:28:31.878Z,9.661585
2024-05-09T00:29:31.903Z,9.661475
2024-05-09T00:30:35.352Z,9.661576
2024-05-09T00:31:31.878Z,9.661604
2024-05-09T00:32:32.024Z,9.661474
2024-05-09T00:33:31.942Z,9.661469
2024-05-09T00:34:31.931Z,9.661495
2024-05-09T00:35:31.890Z,9.661514
2024-05-09T00:36:31.829Z,9.661497
2024-05-09T00:37:31.834Z,9.661488
2024-05-09T00:38:31.988Z,9.661519
2024-05-09T00:39:31.776Z,9.661515
2024-05-09T00:40:38.691Z,9.661545
2024-05-09T00:41:32.990Z,9.661545
2024-05-09T00:42:31.782Z,9.661525
2024-05-09T00:43:31.773Z,9.661518
2024-05-09T00:44:31.863Z,9.661422
2024-05-09T00:45:31.821Z,9.661414
2024-05-09T00:46:31.789Z,9.661480
2024-05-09T00:47:31.856Z,9.661495
2024-05-09T00:48:31.835Z,9.661557
2024-05-09T00:49:31.842Z,9.661558
2024-05-09T00:50:36.214Z,9.661456
2024-05-09T00:51:32.777Z,9.661431
2024-05-09T00:52:31.748Z,9.661442
2024-05-09T00:53:31.849Z,9.661507
2024-05-09T00:54:31.723Z,9.661444
2024-05-09T00:55:31.727Z,9.661465
2024-05-09T00:56:31.779Z,9.661563
2024-05-09T00:57:31.730Z,9.661540
2024-05-09T00:58:31.681Z,9.661444
2024-05-09T00:59:31.814Z,9.661474
2024-05-09T01:00:38.349Z,9.661468
2024-05-09T01:01:32.728Z,9.661463
2024-05-09T01:02:31.734Z,9.661473
2024-05-09T01:03:31.895Z,9.661504
2024-05-09T01:04:31.750Z,9.661541
2024-05-09T01:05:31.692Z,9.661465
2024-05-09T01:06:31.666Z,9.661464
2024-05-09T01:07:31.663Z,9.661466
2024-05-09T01:08:31.710Z,9.661245
2024-05-09T01:09:31.646Z,9.661900
2024-05-09T01:10:34.727Z,9.662221
2024-05-09T01:11:32.761Z,9.662009
2024-05-09T01:12:31.708Z,9.662764
2024-05-09T01:13:31.628Z,9.663288
2024-05-09T01:14:31.666Z,9.663376
2024-05-09T01:15:31.582Z,9.663321
2024-05-09T01:16:31.600Z,9.663589
2024-05-09T01:17:31.860Z,9.662547
2024-05-09T01:18:31.675Z,9.661725
2024-05-09T01:19:31.774Z,9.661233
2024-05-09T01:20:39.858Z,9.661329
2024-05-09T01:21:33.602Z,9.661401
2024-05-09T01:22:31.584Z,9.661695
2024-05-09T01:23:31.703Z,9.661613
2024-05-09T01:24:31.602Z,9.661450
2024-05-09T01:25:31.554Z,9.661509
2024-05-09T01:26:31.564Z,9.661376
2024-05-09T01:27:31.587Z,9.661437
2024-05-09T01:28:32.540Z,9.661568
2024-05-09T01:29:31.546Z,9.661583
2024-05-09T01:30:35.255Z,9.661586
2024-05-09T01:31:33.583Z,9.661656
2024-05-09T01:32:31.695Z,9.661558
2024-05-09T01:33:31.774Z,9.661535
2024-05-09T01:34:31.494Z,9.661496
2024-05-09T01:35:31.547Z,9.661691
2024-05-09T01:36:31.497Z,9.661950
2024-05-09T01:37:31.487Z,9.661538
2024-05-09T01:38:31.684Z,9.661487
2024-05-09T01:39:31.469Z,9.661374
2024-05-09T01:40:37.969Z,9.661635
2024-05-09T01:41:33.498Z,9.661302
2024-05-09T01:42:31.456Z,9.661215
2024-05-09T01:43:31.467Z,9.661369
2024-05-09T01:44:31.517Z,9.661263
2024-05-09T01:45:31.531Z,9.661362
2024-05-09T01:46:31.428Z,9.661443
2024-05-09T01:47:31.599Z,9.661423
2024-05-09T01:48:31.514Z,9.661566
2024-05-09T01:49:31.471Z,9.661537
2024-05-09T01:50:38.225Z,9.661459
2024-05-09T01:51:33.395Z,9.661407
2024-05-09T01:52:31.418Z,9.661591
2024-05-09T01:53:31.565Z,9.661546
2024-05-09T01:54:31.375Z,9.661480
2024-05-09T01:55:31.374Z,9.661544
2024-05-09T01:56:31.389Z,9.661561
2024-05-09T01:57:31.551Z,9.661577
2024-05-09T01:58:31.381Z,9.661545
2024-05-09T01:59:31.396Z,9.661504
2024-05-09T02:00:38.412Z,9.661561
2024-05-09T02:01:55.382Z,9.661552
2024-05-09T02:02:31.422Z,9.661525
2024-05-09T02:03:31.580Z,9.661513
2024-05-09T02:04:31.495Z,9.661498
2024-05-09T02:05:31.369Z,9.661514
2024-05-09T02:06:31.305Z,9.661521
2024-05-09T02:07:31.346Z,9.661504
2024-05-09T02:08:31.396Z,9.661534
2024-05-09T02:09:31.283Z,9.661505
2024-05-09T02:10:32.995Z,9.661511
2024-05-09T02:11:31.422Z,9.661517
2024-05-09T02:12:31.429Z,9.661481
2024-05-09T02:13:31.290Z,9.661571
2024-05-09T02:14:31.467Z,9.661467
2024-05-09T02:15:31.272Z,9.661468
2024-05-09T02:16:31.271Z,9.661489
2024-05-09T02:17:31.394Z,9.661436
2024-05-09T02:18:31.354Z,9.661319
2024-05-09T02:19:31.373Z,9.661208
2024-05-09T02:20:36.004Z,9.661439
2024-05-09T02:21:32.237Z,9.661477
2024-05-09T02:22:31.251Z,9.661585
2024-05-09T02:23:31.354Z,9.661585
2024-05-09T02:24:31.218Z,9.661534
2024-05-09T02:25:31.217Z,9.661563
2024-05-09T02:26:31.216Z,9.661520
2024-05-09T02:27:31.205Z,9.661495
2024-05-09T02:28:31.209Z,9.661537
2024-05-09T02:29:31.308Z,9.661540
2024-05-09T02:30:39.074Z,9.661461
2024-05-09T02:31:32.167Z,9.661492
2024-05-09T02:32:31.310Z,9.661519
2024-05-09T02:33:31.516Z,9.661556
2024-05-09T02:34:31.215Z,9.661504
2024-05-09T02:35:31.242Z,9.661503
2024-05-09T02:36:31.133Z,9.661424
2024-05-09T02:37:31.134Z,9.661421
2024-05-09T02:38:31.205Z,9.661478
2024-05-09T02:39:31.145Z,9.661452
2024-05-09T02:40:37.422Z,9.661490
2024-05-09T02:41:33.151Z,9.661500
2024-05-09T02:42:31.102Z,9.661480
2024-05-09T02:43:31.104Z,9.661489
2024-05-09T02:44:31.139Z,9.661458
2024-05-09T02:45:31.070Z,9.661478
2024-05-09T02:46:31.069Z,9.661521
2024-05-09T02:47:31.189Z,9.661572
2024-05-09T02:48:31.193Z,9.661597
2024-05-09T02:49:31.154Z,9.661536
2024-05-09T02:50:37.668Z,9.661587
2024-05-09T02:51:32.091Z,9.661587
2024-05-09T02:52:31.051Z,9.661539
2024-05-09T02:53:31.209Z,9.661516
2024-05-09T02:54:31.049Z,9.661542
2024-05-09T02:55:31.113Z,9.661498
2024-05-09T02:56:31.090Z,9.661489
2024-05-09T02:57:31.024Z,9.661486
2024-05-09T02:58:31.057Z,9.661511
2024-05-09T02:59:31.059Z,9.661549
2024-05-09T03:00:38.060Z,9.661572
2024-05-09T03:01:32.042Z,9.661540
2024-05-09T03:02:31.155Z,9.661673
2024-05-09T03:03:31.573Z,9.661613
2024-05-09T03:04:31.274Z,9.661572
2024-05-09T03:05:31.191Z,9.661611
2024-05-09T03:06:37.632Z,9.661598
2024-05-09T03:07:30.973Z,9.661624
2024-05-09T03:08:31.906Z,9.661508
2024-05-09T03:09:30.940Z,9.661515
2024-05-09T03:10:35.774Z,9.661528
2024-05-09T03:11:32.034Z,9.661559
2024-05-09T03:12:31.003Z,9.661505
2024-05-09T03:13:31.024Z,9.661547
2024-05-09T03:14:31.046Z,9.661567
2024-05-09T03:15:30.923Z,9.661589
2024-05-09T03:16:30.922Z,9.661418
2024-05-09T03:17:31.253Z,9.661453
2024-05-09T03:18:31.079Z,9.661417
2024-05-09T03:19:30.995Z,9.661277
2024-05-09T03:20:34.537Z,9.661510
2024-05-09T03:21:30.883Z,9.661740
2024-05-09T03:22:30.876Z,9.661695
2024-05-09T03:23:30.974Z,9.661586
2024-05-09T03:24:30.902Z,9.661468
2024-05-09T03:25:30.872Z,9.661469
2024-05-09T03:26:30.968Z,9.661525
2024-05-09T03:27:30.885Z,9.661473
2024-05-09T03:28:30.871Z,9.661540
2024-05-09T03:29:31.000Z,9.661628
2024-05-09T03:30:39.518Z,9.661577
2024-05-09T03:31:31.820Z,9.661564
2024-05-09T03:32:31.012Z,9.661701
2024-05-09T03:33:31.132Z,9.661691
2024-05-09T03:34:30.960Z,9.661679
2024-05-09T03:35:30.951Z,9.661641
2024-05-09T03:36:30.783Z,9.661613
2024-05-09T03:37:30.795Z,9.661699
2024-05-09T03:38:31.009Z,9.661581
2024-05-09T03:39:30.813Z,9.661495
2024-05-09T03:40:31.318Z,9.661691
2024-05-09T03:41:30.871Z,9.661647
2024-05-09T03:42:30.793Z,9.661533
2024-05-09T03:43:30.784Z,9.661368
2024-05-09T03:44:30.830Z,9.661518
2024-05-09T03:45:30.790Z,9.661633
2024-05-09T03:46:30.784Z,9.661466
2024-05-09T03:47:30.912Z,9.661767
2024-05-09T03:48:30.797Z,9.661470
2024-05-09T03:49:30.861Z,9.661244
2024-05-09T03:50:35.416Z,9.661407
2024-05-09T03:51:31.722Z,9.661341
2024-05-09T03:52:30.700Z,9.661450
2024-05-09T03:53:30.726Z,9.661730
2024-05-09T03:54:30.724Z,9.661700
2024-05-09T03:55:30.740Z,9.661962
2024-05-09T03:56:30.812Z,9.662898
2024-05-09T03:57:30.712Z,9.661910
2024-05-09T03:58:30.688Z,9.661670
2024-05-09T03:59:30.902Z,9.661524
2024-05-09T04:00:37.360Z,9.661202
2024-05-09T04:01:30.783Z,9.661290
2024-05-09T04:02:30.716Z,9.662001
2024-05-09T04:03:30.792Z,9.661107
2024-05-09T04:04:30.874Z,9.660743
2024-05-09T04:05:31.230Z,9.661101
2024-05-09T04:06:30.630Z,9.661168
2024-05-09T04:07:30.628Z,9.661168
2024-05-09T04:08:30.695Z,9.661168
2024-05-09T04:09:30.616Z,9.661364
2024-05-09T04:10:33.784Z,9.661317
2024-05-09T04:11:30.734Z,9.661239
2024-05-09T04:12:30.641Z,9.661316
2024-05-09T04:13:30.594Z,9.661218
2024-05-09T04:14:30.684Z,9.661382
2024-05-09T04:15:30.632Z,9.661381
2024-05-09T04:16:30.578Z,9.661636
2024-05-09T04:17:30.802Z,9.661698
2024-05-09T04:18:30.635Z,9.661423
2024-05-09T04:19:30.641Z,9.661809
2024-05-09T04:20:37.723Z,9.661850
2024-05-09T04:21:32.568Z,9.661539
2024-05-09T04:22:30.542Z,9.661545
2024-05-09T04:23:30.612Z,9.661524
2024-05-09T04:24:30.525Z,9.661582
2024-05-09T04:25:30.547Z,9.661449
2024-05-09T04:26:30.583Z,9.661451
2024-05-09T04:27:30.514Z,9.661471
2024-05-09T04:28:30.504Z,9.661503
2024-05-09T04:29:30.674Z,9.661489
2024-05-09T04:30:37.258Z,9.661545
2024-05-09T04:31:32.488Z,9.661478
2024-05-09T04:32:30.593Z,9.661526
2024-05-09T04:33:30.919Z,9.661511
2024-05-09T04:34:30.564Z,9.661489
2024-05-09T04:35:30.562Z,9.661417
2024-05-09T04:36:30.453Z,9.661411
2024-05-09T04:37:30.456Z,9.661396
2024-05-09T04:38:30.483Z,9.661432
2024-05-09T04:39:30.493Z,9.661432
2024-05-09T04:40:34.352Z,9.661432
2024-05-09T04:41:30.466Z,9.661432
2024-05-09T04:42:30.439Z,9.661432
2024-05-09T04:43:30.426Z,9.661432
2024-05-09T04:44:30.548Z,9.661432
2024-05-09T04:45:30.526Z,9.661432
2024-05-09T04:46:30.434Z,9.661432
2024-05-09T04:47:30.631Z,9.661432
2024-05-09T04:48:30.508Z,9.661432
2024-05-09T04:49:30.517Z,9.661432
2024-05-09T04:50:36.658Z,9.661432
2024-05-09T04:51:31.379Z,9.661432
2024-05-09T04:52:30.364Z,9.661432
2024-05-09T04:53:30.405Z,9.661432
2024-05-09T04:54:36.074Z,9.661432
2024-05-09T04:55:30.475Z,9.661432
2024-05-09T04:56:30.397Z,9.661432
2024-05-09T04:57:30.358Z,9.661432
2024-05-09T04:58:30.335Z,9.661432
2024-05-09T04:59:30.558Z,9.661432
2024-05-09T05:00:36.055Z,9.661432
2024-05-09T05:01:31.350Z,9.661432
2024-05-09T05:02:30.401Z,9.661432
2024-05-09T05:03:30.485Z,9.661432
2024-05-09T05:04:30.385Z,9.661720
2024-05-09T05:05:30.416Z,9.661821
2024-05-09T05:06:30.323Z,9.661784
2024-05-09T05:07:30.299Z,9.661349
2024-05-09T05:08:30.306Z,9.661480
2024-05-09T05:09:30.277Z,9.660443
2024-05-09T05:10:35.778Z,9.658830
2024-05-09T05:11:31.344Z,9.657776
2024-05-09T05:12:30.336Z,9.658849
2024-05-09T05:13:30.258Z,9.660365
2024-05-09T05:14:30.374Z,9.661113
2024-05-09T05:15:30.240Z,9.661259
2024-05-09T05:16:30.249Z,9.661071
2024-05-09T05:17:30.432Z,9.661650
2024-05-09T05:18:31.314Z,9.661388
2024-05-09T05:19:30.487Z,9.661160
2024-05-09T05:20:33.654Z,9.661231
2024-05-09T05:21:31.355Z,9.661237
2024-05-09T05:22:30.200Z,9.661151
2024-05-09T05:23:30.287Z,9.661335
2024-05-09T05:24:30.246Z,9.661384
2024-05-09T05:25:30.216Z,9.661501
2024-05-09T05:26:30.240Z,9.661402
2024-05-09T05:27:30.193Z,9.661346
2024-05-09T05:28:30.203Z,9.661159
2024-05-09T05:29:30.229Z,9.661204
2024-05-09T05:30:34.512Z,9.660794
2024-05-09T05:31:30.225Z,9.660930
2024-05-09T05:32:30.400Z,9.660989
2024-05-09T05:33:30.380Z,9.660747
2024-05-09T05:34:30.171Z,9.660541
2024-05-09T05:35:30.364Z,9.660137
2024-05-09T05:36:30.244Z,9.659998
2024-05-09T05:37:30.142Z,9.660682
2024-05-09T05:38:30.224Z,9.660587
2024-05-09T05:39:30.163Z,9.660321
2024-05-09T05:40:36.250Z,9.660306
2024-05-09T05:41:31.244Z,9.659731
2024-05-09T05:42:30.195Z,9.659212
2024-05-09T05:43:30.121Z,9.658772
2024-05-09T05:44:30.179Z,9.658898
2024-05-09T05:45:30.106Z,9.659076
2024-05-09T05:46:30.123Z,9.659001
2024-05-09T05:47:30.207Z,9.659077
2024-05-09T05:48:30.131Z,9.659077
2024-05-09T05:49:30.155Z,9.659077
2024-05-09T05:50:35.552Z,9.661551
2024-05-09T05:51:31.133Z,9.662061
2024-05-09T05:52:30.066Z,9.661649
2024-05-09T05:53:30.104Z,9.661599
2024-05-09T05:54:30.054Z,9.661596
2024-05-09T05:55:30.106Z,9.661583
2024-05-09T05:56:30.078Z,9.661579
2024-05-09T05:57:30.052Z,9.661562
2024-05-09T05:58:30.032Z,9.661559
2024-05-09T05:59:30.024Z,9.661565
2024-05-09T06:00:37.467Z,9.661551
2024-05-09T06:01:31.176Z,9.661508
2024-05-09T06:02:30.101Z,9.661564
2024-05-09T06:03:30.093Z,9.661545
2024-05-09T06:04:30.075Z,9.661509
2024-05-09T06:05:30.079Z,9.661514
2024-05-09T06:06:29.987Z,9.661571
2024-05-09T06:07:29.988Z,9.661561
2024-05-09T06:08:30.630Z,9.661562
2024-05-09T06:09:30.961Z,9.661612
2024-05-09T06:10:37.435Z,9.661647
2024-05-09T06:11:32.101Z,9.661592
2024-05-09T06:12:30.021Z,9.661587
2024-05-09T06:13:29.970Z,9.661583
2024-05-09T06:14:30.083Z,9.661526
2024-05-09T06:15:29.936Z,9.661538
2024-05-09T06:16:29.941Z,9.661549
2024-05-09T06:17:29.983Z,9.661590
2024-05-09T06:18:30.355Z,9.661574
2024-05-09T06:19:29.988Z,9.661575
2024-05-09T06:20:35.351Z,9.661567
2024-05-09T06:21:31.931Z,9.661525
2024-05-09T06:22:30.018Z,9.661551
2024-05-09T06:23:29.949Z,9.661530
2024-05-09T06:24:29.879Z,9.661552
2024-05-09T06:25:29.917Z,9.661462
2024-05-09T06:26:30.009Z,9.661370
2024-05-09T06:27:29.879Z,9.661438
2024-05-09T06:28:29.855Z,9.661513
2024-05-09T06:29:29.992Z,9.661647
2024-05-09T06:30:37.289Z,9.661903
2024-05-09T06:31:30.960Z,9.661751
2024-05-09T06:32:29.919Z,9.661838
2024-05-09T06:33:31.117Z,9.661789
2024-05-09T06:34:30.007Z,9.661510
2024-05-09T06:35:29.922Z,9.661690
2024-05-09T06:36:29.829Z,9.661555
2024-05-09T06:37:29.837Z,9.661340
2024-05-09T06:38:29.847Z,9.661099
2024-05-09T06:39:29.812Z,9.661485
2024-05-09T06:40:36.655Z,9.661118
2024-05-09T06:41:31.831Z,9.661037
2024-05-09T06:42:29.806Z,9.661207
2024-05-09T06:43:29.780Z,9.661129
2024-05-09T06:44:29.916Z,9.661075
2024-05-09T06:45:29.775Z,9.661393
2024-05-09T06:46:29.772Z,9.661423
2024-05-09T06:47:29.874Z,9.661353
2024-05-09T06:48:29.931Z,9.661364
2024-05-09T06:49:30.086Z,9.661719
2024-05-09T06:50:35.778Z,9.661561
2024-05-09T06:51:31.745Z,9.661441
2024-05-09T06:52:29.748Z,9.661275
2024-05-09T06:53:29.817Z,9.661400
2024-05-09T06:54:29.735Z,9.661594
2024-05-09T06:55:29.733Z,9.661473
2024-05-09T06:56:29.891Z,9.661276
2024-05-09T06:57:29.721Z,9.661319
2024-05-09T06:58:29.714Z,9.661273
2024-05-09T06:59:29.875Z,9.661553
2024-05-09T07:00:35.624Z,9.661526
2024-05-09T07:01:31.798Z,9.661962
2024-05-09T07:02:30.818Z,9.661972
2024-05-09T07:03:29.780Z,9.661259
2024-05-09T07:04:29.841Z,9.661480
2024-05-09T07:05:29.839Z,9.661279
2024-05-09T07:06:29.715Z,9.661360
2024-05-09T07:07:29.701Z,9.661373
2024-05-09T07:08:29.704Z,9.661473
2024-05-09T07:09:29.663Z,9.661389
2024-05-09T07:10:34.792Z,9.661562
2024-05-09T07:11:30.751Z,9.661670
2024-05-09T07:12:29.771Z,9.661865
2024-05-09T07:13:29.658Z,9.661735
2024-05-09T07:14:29.872Z,9.661423
2024-05-09T07:15:29.636Z,9.661123
2024-05-09T07:16:29.623Z,9.661769
2024-05-09T07:17:29.841Z,9.661769
2024-05-09T07:18:29.848Z,9.661698
2024-05-09T07:19:29.704Z,9.661698
2024-05-09T07:20:34.498Z,9.661698
2024-05-09T07:21:31.587Z,9.661698
2024-05-09T07:22:29.612Z,9.661369
2024-05-09T07:23:29.630Z,9.661592
2024-05-09T07:24:29.601Z,9.661451
2024-05-09T07:25:29.770Z,9.661333
2024-05-09T07:26:29.659Z,9.661209
2024-05-09T07:27:29.950Z,9.661354
2024-05-09T07:28:29.555Z,9.661326
2024-05-09T07:29:29.661Z,9.661386
2024-05-09T07:30:33.504Z,9.661427
2024-05-09T07:31:31.575Z,9.661276
2024-05-09T07:32:29.661Z,9.661289
2024-05-09T07:33:29.702Z,9.661304
2024-05-09T07:34:29.665Z,9.661342
2024-05-09T07:35:29.785Z,9.661171
2024-05-09T07:36:29.550Z,9.661187
2024-05-09T07:37:29.548Z,9.661571
2024-05-09T07:38:29.571Z,9.661571
2024-05-09T07:39:29.524Z,9.661571
2024-05-09T07:40:35.634Z,9.661571
2024-05-09T07:41:30.673Z,9.661542
2024-05-09T07:42:29.538Z,9.661554
2024-05-09T07:43:30.495Z,9.661609
2024-05-09T07:44:29.535Z,9.661592
2024-05-09T07:45:45.802Z,9.661442
2024-05-09T07:47:37.123Z,9.661439
2024-05-09T07:48:57.442Z,9.661646
2024-05-09T07:50:01.284Z,9.661683
2024-05-09T07:53:08.313Z,9.661565
2024-05-09T07:53:32.698Z,9.661555
2024-05-09T07:53:40.411Z,9.661615
2024-05-09T07:54:31.574Z,9.661716
2024-05-09T07:55:29.623Z,9.661667
2024-05-09T07:56:29.977Z,9.661598
2024-05-09T07:57:29.457Z,9.661490
2024-05-09T07:58:29.537Z,9.661248
2024-05-09T07:59:29.457Z,9.661378
2024-05-09T08:00:31.728Z,9.661454
2024-05-09T08:01:30.577Z,9.661529
2024-05-09T08:02:29.578Z,9.661664
2024-05-09T08:03:29.587Z,9.661575
2024-05-09T08:04:29.549Z,9.661471
2024-05-09T08:05:29.560Z,9.661539
2024-05-09T08:06:29.428Z,9.661590
2024-05-09T08:07:29.371Z,9.661516
2024-05-09T08:08:29.441Z,9.661531
2024-05-09T08:09:29.632Z,9.661613
2024-05-09T08:10:29.562Z,9.661530
2024-05-09T08:11:29.393Z,9.661735
2024-05-09T08:12:29.411Z,9.661554
2024-05-09T08:13:29.373Z,9.661549
2024-05-09T08:14:29.358Z,9.661469
2024-05-09T08:15:29.694Z,9.661572
2024-05-09T08:16:29.515Z,9.661628
2024-05-09T08:17:29.402Z,9.661766
2024-05-09T08:18:29.615Z,9.661590
2024-05-09T08:19:29.375Z,9.661557
2024-05-09T08:20:33.652Z,9.661525
2024-05-09T08:21:31.359Z,9.661550
2024-05-09T08:22:29.324Z,9.661536
2024-05-09T08:23:29.299Z,9.661550
2024-05-09T08:24:29.353Z,9.661593
2024-05-09T08:25:29.283Z,9.661453
2024-05-09T08:26:29.297Z,9.661395
2024-05-09T08:27:29.280Z,9.661348
2024-05-09T08:28:29.321Z,9.661265
2024-05-09T08:29:29.277Z,9.661319
2024-05-09T08:30:33.866Z,9.661261
2024-05-09T08:31:30.477Z,9.661534
2024-05-09T08:32:29.893Z,9.661637
2024-05-09T08:33:29.479Z,9.661630
2024-05-09T08:34:29.392Z,9.661659
2024-05-09T08:35:29.235Z,9.661594
2024-05-09T08:36:29.385Z,9.661630
2024-05-09T08:37:32.878Z,9.661545
2024-05-09T08:38:31.223Z,9.661460
2024-05-09T08:39:29.264Z,9.661566
2024-05-09T08:40:34.468Z,9.661601
2024-05-09T08:41:31.260Z,9.661533
2024-05-09T08:42:29.278Z,9.661520
2024-05-09T08:43:30.973Z,9.661549
2024-05-09T08:44:29.196Z,9.661547
2024-05-09T08:45:29.264Z,9.661520
2024-05-09T08:46:29.369Z,9.661510
2024-05-09T08:47:29.265Z,9.661489
2024-05-09T08:48:29.328Z,9.661456
2024-05-09T08:49:29.686Z,9.661457
2024-05-09T08:50:36.426Z,9.661497
2024-05-09T08:51:30.218Z,9.661492
2024-05-09T08:52:29.136Z,9.661474
2024-05-09T08:53:29.164Z,9.661528
2024-05-09T08:54:29.229Z,9.661573
2024-05-09T08:55:29.129Z,9.661583
2024-05-09T08:56:29.125Z,9.661497
2024-05-09T08:57:29.129Z,9.661552
2024-05-09T08:58:29.116Z,9.661482
2024-05-09T08:59:29.106Z,9.661466
2024-05-09T09:00:36.099Z,9.661714
2024-05-09T09:01:32.057Z,9.661384
2024-05-09T09:02:29.177Z,9.661529
2024-05-09T09:03:29.415Z,9.661494
2024-05-09T09:04:29.158Z,9.661497
2024-05-09T09:05:29.270Z,9.661547
2024-05-09T09:06:29.086Z,9.661491
2024-05-09T09:07:29.176Z,9.661463
2024-05-09T09:08:29.075Z,9.661427
2024-05-09T09:09:30.107Z,9.661452
2024-05-09T09:10:31.868Z,9.661435
2024-05-09T09:11:30.108Z,9.661559
2024-05-09T09:12:29.151Z,9.661494
2024-05-09T09:13:29.050Z,9.661507
2024-05-09T09:14:29.028Z,9.661523
2024-05-09T09:15:29.064Z,9.661482
2024-05-09T09:16:29.030Z,9.661473
2024-05-09T09:17:29.862Z,9.661397
2024-05-09T09:18:29.373Z,9.661485
2024-05-09T09:19:29.051Z,9.661444
2024-05-09T09:20:35.675Z,9.661314
2024-05-09T09:21:31.059Z,9.661492
2024-05-09T09:22:29.003Z,9.661754
2024-05-09T09:23:28.965Z,9.661459
2024-05-09T09:24:29.020Z,9.661687
2024-05-09T09:25:28.984Z,9.661429
2024-05-09T09:26:28.960Z,9.661377
2024-05-09T09:27:29.004Z,9.661487
2024-05-09T09:28:28.961Z,9.661674
2024-05-09T09:29:28.970Z,9.661509
2024-05-09T09:30:36.351Z,9.661390
2024-05-09T09:31:31.141Z,9.661267
2024-05-09T09:32:29.011Z,9.661427
2024-05-09T09:33:29.065Z,9.661370
2024-05-09T09:34:29.189Z,9.661051
2024-05-09T09:35:28.932Z,9.661289
2024-05-09T09:36:29.023Z,9.661290
2024-05-09T09:37:28.917Z,9.661415
2024-05-09T09:38:28.918Z,9.661076
2024-05-09T09:39:28.913Z,9.660970
2024-05-09T09:40:32.279Z,9.661542
2024-05-09T09:41:31.076Z,9.661521
2024-05-09T09:42:28.915Z,9.661470
2024-05-09T09:43:28.891Z,9.661439
2024-05-09T09:44:28.879Z,9.661463
2024-05-09T09:45:28.941Z,9.661458
2024-05-09T09:46:29.022Z,9.661472
2024-05-09T09:47:29.015Z,9.661443
2024-05-09T09:48:29.024Z,9.661406
2024-05-09T09:49:28.895Z,9.661463
2024-05-09T09:50:34.274Z,9.661510
2024-05-09T09:51:29.905Z,9.661482
2024-05-09T09:52:29.193Z,9.661552
2024-05-09T09:53:28.830Z,9.661530
2024-05-09T09:54:28.855Z,9.661492
2024-05-09T09:55:28.825Z,9.661532
2024-05-09T09:56:28.835Z,9.661517
2024-05-09T09:57:28.854Z,9.661493
2024-05-09T09:58:28.858Z,9.661514
2024-05-09T09:59:28.807Z,9.661633
2024-05-09T10:00:32.911Z,9.661579
2024-05-09T10:01:30.994Z,9.661519
2024-05-09T10:02:28.992Z,9.661510
2024-05-09T10:03:29.042Z,9.661464
2024-05-09T10:04:28.904Z,9.661493
2024-05-09T10:05:29.027Z,9.661550
2024-05-09T10:06:28.812Z,9.661548
2024-05-09T10:07:28.803Z,9.661509
2024-05-09T10:08:28.807Z,9.661473
2024-05-09T10:09:28.805Z,9.661513
2024-05-09T10:10:32.333Z,9.661551
2024-05-09T10:11:29.831Z,9.661536
2024-05-09T10:12:28.833Z,9.661525
2024-05-09T10:13:28.805Z,9.661545
2024-05-09T10:14:28.791Z,9.661547
2024-05-09T10:15:28.800Z,9.661495
2024-05-09T10:16:28.823Z,9.661530
2024-05-09T10:17:28.922Z,9.661519
2024-05-09T10:18:31.187Z,9.661508
2024-05-09T10:19:28.853Z,9.661476
2024-05-09T10:20:32.535Z,9.661495
2024-05-09T10:21:28.711Z,9.661487
2024-05-09T10:22:28.799Z,9.661508
2024-05-09T10:23:28.755Z,9.661500
2024-05-09T10:24:28.684Z,9.661488
2024-05-09T10:25:28.713Z,9.661481
2024-05-09T10:26:28.670Z,9.661463
2024-05-09T10:27:28.737Z,9.661486
2024-05-09T10:28:28.703Z,9.661530
2024-05-09T10:29:28.662Z,9.661584
2024-05-09T10:30:34.235Z,9.661551
2024-05-09T10:31:29.739Z,9.661486
2024-05-09T10:32:28.751Z,9.661342
2024-05-09T10:33:28.809Z,9.661412
2024-05-09T10:34:28.769Z,9.661518
2024-05-09T10:35:28.627Z,9.661487
2024-05-09T10:36:29.674Z,9.661679
2024-05-09T10:37:28.704Z,9.661562
2024-05-09T10:38:28.627Z,9.661569
2024-05-09T10:39:28.636Z,9.661521
2024-05-09T10:40:31.286Z,9.661560
2024-05-09T10:41:29.606Z,9.661623
2024-05-09T10:42:28.648Z,9.661474
2024-05-09T10:43:28.630Z,9.661459
2024-05-09T10:44:28.589Z,9.661553
2024-05-09T10:45:28.654Z,9.661619
2024-05-09T10:46:29.309Z,9.661445
2024-05-09T10:47:28.679Z,9.661355
2024-05-09T10:48:28.662Z,9.661336
2024-05-09T10:49:28.581Z,9.661341
2024-05-09T10:50:31.991Z,9.661312
2024-05-09T10:51:28.617Z,9.661058
2024-05-09T10:52:28.682Z,9.661072
2024-05-09T10:53:28.527Z,9.660950
2024-05-09T10:54:28.590Z,9.660936
2024-05-09T10:55:28.586Z,9.660456
2024-05-09T10:56:28.550Z,9.661099
2024-05-09T10:57:28.576Z,9.661222
2024-05-09T10:58:28.523Z,9.661389
2024-05-09T10:59:28.517Z,9.661490
2024-05-09T11:00:33.693Z,9.661345
2024-05-09T11:01:29.587Z,9.661526
2024-05-09T11:02:28.722Z,9.661426
2024-05-09T11:03:28.631Z,9.661446
2024-05-09T11:04:28.571Z,9.661419
2024-05-09T11:05:28.709Z,9.661419
2024-05-09T11:06:28.516Z,9.661405
2024-05-09T11:07:28.549Z,9.661444
2024-05-09T11:08:28.480Z,9.661628
2024-05-09T11:09:28.499Z,9.661535
2024-05-09T11:10:33.740Z,9.661546
2024-05-09T11:11:28.584Z,9.661586
2024-05-09T11:12:28.562Z,9.661480
2024-05-09T11:13:28.447Z,9.661559
2024-05-09T11:14:28.436Z,9.661566
2024-05-09T11:15:28.424Z,9.661618
2024-05-09T11:16:28.434Z,9.661714
2024-05-09T11:17:28.729Z,9.661754
2024-05-09T11:18:30.787Z,9.661819
2024-05-09T11:19:29.486Z,9.661793
2024-05-09T11:20:29.969Z,9.661651
2024-05-09T11:21:29.497Z,9.661583
2024-05-09T11:22:28.449Z,9.661411
2024-05-09T11:23:28.401Z,9.661452
2024-05-09T11:24:28.432Z,9.661508
2024-05-09T11:25:28.388Z,9.661745
2024-05-09T11:26:28.378Z,9.661464
2024-05-09T11:27:28.505Z,9.661472
2024-05-09T11:28:28.790Z,9.661716
2024-05-09T11:29:28.395Z,9.661657
2024-05-09T11:30:31.880Z,9.661685
2024-05-09T11:31:28.470Z,9.661693
2024-05-09T11:32:28.506Z,9.661673
2024-05-09T11:33:28.487Z,9.661661
2024-05-09T11:34:28.348Z,9.661696
2024-05-09T11:35:28.346Z,9.661386
2024-05-09T11:36:28.381Z,9.661323
2024-05-09T11:37:28.360Z,9.661744
2024-05-09T11:38:28.370Z,9.661692
2024-05-09T11:39:28.363Z,9.661557
2024-05-09T11:40:33.966Z,9.661489
2024-05-09T11:41:30.344Z,9.661463
2024-05-09T11:42:28.321Z,9.661500
2024-05-09T11:43:28.360Z,9.661514
2024-05-09T11:44:28.296Z,9.661600
2024-05-09T11:45:28.408Z,9.661318
2024-05-09T11:46:28.347Z,9.661444